sensor_id;sensor_type;location;lat;lon;timestamp;pressure;altitude;pressure_sealevel;temperature;humidity
62072;BME280;48031;48.542;13.232;2023-04-29T00:02:14;96995.09;;;17.55;60.83
62072;BME280;48031;48.542;13.232;2023-04-29T00:06:15;96992.13;;;17.52;61.03
62072;BME280;48031;48.542;13.232;2023-04-29T00:10:18;96999.06;;;17.49;60.64
62072;BME280;48031;48.542;13.232;2023-04-29T00:14:20;96999.03;;;17.35;60.54
62072;BME280;48031;48.542;13.232;2023-04-29T00:23:54;96982.16;;;17.28;60.32
62072;BME280;48031;48.542;13.232;2023-04-29T00:27:56;96983.31;;;17.27;60.48
62072;BME280;48031;48.542;13.232;2023-04-29T00:32:02;96979.63;;;17.18;60.76
62072;BME280;48031;48.542;13.232;2023-04-29T00:36:04;96984.41;;;17.26;60.66
62072;BME280;48031;48.542;13.232;2023-04-29T00:40:06;96986.66;;;17.38;60.49
62072;BME280;48031;48.542;13.232;2023-04-29T00:44:09;96986.84;;;17.41;60.54
62072;BME280;48031;48.542;13.232;2023-04-29T00:48:11;96986.44;;;17.48;60.65
62072;BME280;48031;48.542;13.232;2023-04-29T00:52:14;96991.72;;;17.17;61.43
62072;BME280;48031;48.542;13.232;2023-04-29T00:56:17;96981.75;;;17.35;61.04
62072;BME280;48031;48.542;13.232;2023-04-29T01:00:21;96972.78;;;17.84;59.28
62072;BME280;48031;48.542;13.232;2023-04-29T01:04:23;96972.63;;;18.03;58.73
62072;BME280;48031;48.542;13.232;2023-04-29T01:08:53;96969.97;;;18.56;57.98
62072;BME280;48031;48.542;13.232;2023-04-29T01:13:16;96981.28;;;18.32;58.90
62072;BME280;48031;48.542;13.232;2023-04-29T01:17:24;96970.88;;;18.29;59.01
62072;BME280;48031;48.542;13.232;2023-04-29T01:21:27;96971.00;;;17.66;59.94
62072;BME280;48031;48.542;13.232;2023-04-29T01:25:32;96975.50;;;17.84;59.54
62072;BME280;48031;48.542;13.232;2023-04-29T01:29:55;96972.44;;;17.99;60.12
62072;BME280;48031;48.542;13.232;2023-04-29T01:34:07;96967.28;;;18.20;59.35
62072;BME280;48031;48.542;13.232;2023-04-29T01:38:17;96967.28;;;18.42;58.74
62072;BME280;48031;48.542;13.232;2023-04-29T01:43:06;96961.28;;;18.40;58.90
62072;BME280;48031;48.542;13.232;2023-04-29T01:46:52;96960.78;;;18.16;59.14
62072;BME280;48031;48.542;13.232;2023-04-29T01:51:00;96957.09;;;17.98;59.28
62072;BME280;48031;48.542;13.232;2023-04-29T01:55:02;96966.72;;;18.09;58.84
62072;BME280;48031;48.542;13.232;2023-04-29T01:59:17;96968.47;;;18.05;58.84
62072;BME280;48031;48.542;13.232;2023-04-29T02:03:33;96969.78;;;17.72;60.02
62072;BME280;48031;48.542;13.232;2023-04-29T02:07:36;96966.47;;;18.19;58.73
62072;BME280;48031;48.542;13.232;2023-04-29T02:11:38;96970.25;;;17.88;59.67
62072;BME280;48031;48.542;13.232;2023-04-29T02:15:39;96961.47;;;17.85;59.60
62072;BME280;48031;48.542;13.232;2023-04-29T02:19:42;96962.94;;;17.69;60.08
62072;BME280;48031;48.542;13.232;2023-04-29T02:23:44;96961.09;;;17.78;60.41
62072;BME280;48031;48.542;13.232;2023-04-29T02:27:46;96961.94;;;18.01;59.11
62072;BME280;48031;48.542;13.232;2023-04-29T02:31:47;96968.56;;;17.37;60.75
62072;BME280;48031;48.542;13.232;2023-04-29T02:35:50;96960.13;;;16.92;62.75
62072;BME280;48031;48.542;13.232;2023-04-29T02:39:51;96966.22;;;17.03;62.55
62072;BME280;48031;48.542;13.232;2023-04-29T02:43:54;96962.56;;;16.94;62.56
62072;BME280;48031;48.542;13.232;2023-04-29T02:47:56;96947.53;;;17.19;61.86
62072;BME280;48031;48.542;13.232;2023-04-29T02:51:58;96955.03;;;16.86;62.50
62072;BME280;48031;48.542;13.232;2023-04-29T02:55:59;96953.22;;;16.81;62.51
62072;BME280;48031;48.542;13.232;2023-04-29T03:00:01;96964.47;;;16.66;62.86
62072;BME280;48031;48.542;13.232;2023-04-29T03:04:04;96955.25;;;16.89;62.51
62072;BME280;48031;48.542;13.232;2023-04-29T03:08:07;96954.44;;;17.43;60.27
62072;BME280;48031;48.542;13.232;2023-04-29T03:12:10;96943.94;;;17.59;60.18
62072;BME280;48031;48.542;13.232;2023-04-29T03:16:13;96943.66;;;17.47;60.17
62072;BME280;48031;48.542;13.232;2023-04-29T03:20:18;96941.66;;;17.25;61.45
62072;BME280;48031;48.542;13.232;2023-04-29T03:24:21;96934.59;;;17.96;59.07
62072;BME280;48031;48.542;13.232;2023-04-29T03:28:23;96928.59;;;17.72;59.53
62072;BME280;48031;48.542;13.232;2023-04-29T03:32:25;96941.66;;;17.25;60.54
62072;BME280;48031;48.542;13.232;2023-04-29T03:36:28;96943.22;;;17.67;59.77
62072;BME280;48031;48.542;13.232;2023-04-29T03:40:40;96938.34;;;18.00;58.74
62072;BME280;48031;48.542;13.232;2023-04-29T03:44:42;96933.38;;;18.02;58.97
62072;BME280;48031;48.542;13.232;2023-04-29T03:48:44;96941.91;;;17.51;60.69
62072;BME280;48031;48.542;13.232;2023-04-29T03:52:47;96947.09;;;17.53;60.71
62072;BME280;48031;48.542;13.232;2023-04-29T03:56:50;96948.09;;;17.57;60.65
62072;BME280;48031;48.542;13.232;2023-04-29T04:00:54;96947.47;;;17.73;60.49
62072;BME280;48031;48.542;13.232;2023-04-29T04:05:00;96948.59;;;18.31;58.87
62072;BME280;48031;48.542;13.232;2023-04-29T04:09:02;96954.91;;;17.73;60.42
62072;BME280;48031;48.542;13.232;2023-04-29T04:13:07;96946.59;;;18.00;59.43
62072;BME280;48031;48.542;13.232;2023-04-29T04:17:09;96965.88;;;17.86;59.92
62072;BME280;48031;48.542;13.232;2023-04-29T04:21:12;96967.31;;;18.28;58.73
62072;BME280;48031;48.542;13.232;2023-04-29T04:25:18;96961.09;;;18.14;59.38
62072;BME280;48031;48.542;13.232;2023-04-29T04:29:20;96961.28;;;18.40;58.51
62072;BME280;48031;48.542;13.232;2023-04-29T04:33:34;96956.09;;;18.39;58.45
62072;BME280;48031;48.542;13.232;2023-04-29T04:37:36;96960.44;;;18.17;59.26
62072;BME280;48031;48.542;13.232;2023-04-29T04:41:39;96965.13;;;18.17;59.44
62072;BME280;48031;48.542;13.232;2023-04-29T04:45:41;96964.91;;;18.05;59.81
62072;BME280;48031;48.542;13.232;2023-04-29T04:49:44;96968.50;;;18.14;59.25
62072;BME280;48031;48.542;13.232;2023-04-29T04:53:47;96957.69;;;17.95;60.32
62072;BME280;48031;48.542;13.232;2023-04-29T04:57:53;96952.47;;;18.07;59.41
62072;BME280;48031;48.542;13.232;2023-04-29T05:01:56;96954.84;;;18.67;57.75
62072;BME280;48031;48.542;13.232;2023-04-29T05:05:59;96959.03;;;18.64;58.74
62072;BME280;48031;48.542;13.232;2023-04-29T05:10:03;96966.09;;;18.57;58.60
62072;BME280;48031;48.542;13.232;2023-04-29T05:14:11;96965.09;;;18.31;59.48
62072;BME280;48031;48.542;13.232;2023-04-29T05:18:13;96966.97;;;18.66;58.82
62072;BME280;48031;48.542;13.232;2023-04-29T05:22:17;96982.97;;;18.64;59.04
62072;BME280;48031;48.542;13.232;2023-04-29T05:26:20;96987.59;;;18.77;58.57
62072;BME280;48031;48.542;13.232;2023-04-29T05:30:24;96984.97;;;18.72;58.74
62072;BME280;48031;48.542;13.232;2023-04-29T05:34:26;96986.97;;;18.58;58.11
62072;BME280;48031;48.542;13.232;2023-04-29T05:38:28;96995.50;;;18.79;58.02
62072;BME280;48031;48.542;13.232;2023-04-29T05:42:38;97002.59;;;18.71;57.92
62072;BME280;48031;48.542;13.232;2023-04-29T05:46:40;97007.69;;;18.42;58.34
62072;BME280;48031;48.542;13.232;2023-04-29T05:50:42;97015.84;;;18.11;60.25
62072;BME280;48031;48.542;13.232;2023-04-29T05:54:43;97019.66;;;17.88;60.82
62072;BME280;48031;48.542;13.232;2023-04-29T05:58:46;97024.16;;;18.19;59.93
62072;BME280;48031;48.542;13.232;2023-04-29T06:02:48;97025.03;;;18.28;59.46
62072;BME280;48031;48.542;13.232;2023-04-29T06:06:59;97037.13;;;18.63;58.31
62072;BME280;48031;48.542;13.232;2023-04-29T06:11:26;97022.53;;;18.41;58.81
62072;BME280;48031;48.542;13.232;2023-04-29T06:15:28;97032.06;;;18.57;58.70
62072;BME280;48031;48.542;13.232;2023-04-29T06:19:30;97025.41;;;18.72;58.68
62072;BME280;48031;48.542;13.232;2023-04-29T06:23:34;97029.88;;;18.67;58.39
62072;BME280;48031;48.542;13.232;2023-04-29T06:27:41;97026.22;;;18.72;58.36
62072;BME280;48031;48.542;13.232;2023-04-29T06:31:43;97026.59;;;19.10;57.13
62072;BME280;48031;48.542;13.232;2023-04-29T06:35:46;97025.34;;;19.25;57.41
62072;BME280;48031;48.542;13.232;2023-04-29T06:40:07;97034.91;;;19.58;56.92
62072;BME280;48031;48.542;13.232;2023-04-29T06:44:33;97034.16;;;19.66;57.00
62072;BME280;48031;48.542;13.232;2023-04-29T06:49:13;97047.09;;;19.35;57.31
62072;BME280;48031;48.542;13.232;2023-04-29T06:53:15;97051.47;;;19.67;56.13
62072;BME280;48031;48.542;13.232;2023-04-29T06:57:17;97044.16;;;19.00;58.25
62072;BME280;48031;48.542;13.232;2023-04-29T07:01:20;97057.56;;;19.24;58.18
62072;BME280;48031;48.542;13.232;2023-04-29T07:05:24;97053.84;;;19.20;58.18
62072;BME280;48031;48.542;13.232;2023-04-29T07:09:26;97059.25;;;18.81;59.40
62072;BME280;48031;48.542;13.232;2023-04-29T07:13:28;97065.28;;;19.14;58.86
62072;BME280;48031;48.542;13.232;2023-04-29T07:17:30;97070.00;;;18.91;58.86
62072;BME280;48031;48.542;13.232;2023-04-29T07:21:32;97069.88;;;18.74;59.40
62072;BME280;48031;48.542;13.232;2023-04-29T07:25:34;97076.50;;;18.37;61.18
62072;BME280;48031;48.542;13.232;2023-04-29T07:29:38;97073.34;;;18.43;60.87
62072;BME280;48031;48.542;13.232;2023-04-29T07:33:40;97073.94;;;18.76;60.03
62072;BME280;48031;48.542;13.232;2023-04-29T07:37:43;97070.91;;;19.08;59.14
62072;BME280;48031;48.542;13.232;2023-04-29T07:41:46;97075.13;;;19.37;58.33
62072;BME280;48031;48.542;13.232;2023-04-29T07:45:48;97094.06;;;19.07;59.17
62072;BME280;48031;48.542;13.232;2023-04-29T07:49:50;97088.13;;;18.92;59.40
62072;BME280;48031;48.542;13.232;2023-04-29T07:53:53;97093.66;;;19.23;58.98
62072;BME280;48031;48.542;13.232;2023-04-29T07:57:55;97098.44;;;18.64;60.88
62072;BME280;48031;48.542;13.232;2023-04-29T08:02:00;97097.88;;;18.76;60.77
62072;BME280;48031;48.542;13.232;2023-04-29T08:06:03;97105.38;;;18.48;61.36
62072;BME280;48031;48.542;13.232;2023-04-29T08:10:05;97104.06;;;18.81;60.68
62072;BME280;48031;48.542;13.232;2023-04-29T08:14:10;97101.44;;;19.21;59.78
62072;BME280;48031;48.542;13.232;2023-04-29T08:18:12;97095.56;;;19.75;58.86
62072;BME280;48031;48.542;13.232;2023-04-29T08:22:14;97098.16;;;19.80;58.72
62072;BME280;48031;48.542;13.232;2023-04-29T08:26:16;97116.53;;;20.02;57.89
62072;BME280;48031;48.542;13.232;2023-04-29T08:30:18;97110.88;;;19.59;58.83
62072;BME280;48031;48.542;13.232;2023-04-29T08:34:20;97110.38;;;20.70;55.68
62072;BME280;48031;48.542;13.232;2023-04-29T08:38:22;97110.22;;;20.84;55.21
62072;BME280;48031;48.542;13.232;2023-04-29T08:42:35;97112.25;;;21.85;53.40
62072;BME280;48031;48.542;13.232;2023-04-29T08:46:37;97108.72;;;21.76;52.78
62072;BME280;48031;48.542;13.232;2023-04-29T08:50:40;97107.59;;;21.69;51.03
62072;BME280;48031;48.542;13.232;2023-04-29T08:54:42;97121.41;;;21.22;52.71
62072;BME280;48031;48.542;13.232;2023-04-29T08:58:44;97115.22;;;21.34;53.37
62072;BME280;48031;48.542;13.232;2023-04-29T09:02:49;97118.41;;;22.00;53.28
62072;BME280;48031;48.542;13.232;2023-04-29T09:06:55;97110.25;;;22.32;50.52
62072;BME280;48031;48.542;13.232;2023-04-29T09:10:57;97119.91;;;21.80;51.25
62072;BME280;48031;48.542;13.232;2023-04-29T09:14:59;97117.44;;;22.25;51.13
62072;BME280;48031;48.542;13.232;2023-04-29T09:19:01;97113.22;;;21.89;51.68
62072;BME280;48031;48.542;13.232;2023-04-29T09:23:03;97113.81;;;22.12;50.96
62072;BME280;48031;48.542;13.232;2023-04-29T09:27:05;97116.81;;;21.35;50.28
62072;BME280;48031;48.542;13.232;2023-04-29T09:31:07;97096.75;;;22.02;50.28
62072;BME280;48031;48.542;13.232;2023-04-29T09:35:24;97098.16;;;22.87;48.60
62072;BME280;48031;48.542;13.232;2023-04-29T09:39:37;97110.38;;;22.36;50.56
62072;BME280;48031;48.542;13.232;2023-04-29T09:43:39;97110.78;;;22.47;49.63
62072;BME280;48031;48.542;13.232;2023-04-29T09:47:42;97116.69;;;22.66;49.97
62072;BME280;48031;48.542;13.232;2023-04-29T09:51:55;97111.94;;;23.29;48.10
62072;BME280;48031;48.542;13.232;2023-04-29T09:56:01;97118.78;;;22.69;46.36
62072;BME280;48031;48.542;13.232;2023-04-29T10:00:03;97117.94;;;22.48;47.64
62072;BME280;48031;48.542;13.232;2023-04-29T10:04:15;97108.44;;;23.19;47.46
62072;BME280;48031;48.542;13.232;2023-04-29T10:08:17;97107.56;;;23.73;46.13
62072;BME280;48031;48.542;13.232;2023-04-29T10:12:19;97100.19;;;24.37;45.60
62072;BME280;48031;48.542;13.232;2023-04-29T10:16:33;97106.19;;;25.04;43.91
62072;BME280;48031;48.542;13.232;2023-04-29T10:20:36;97101.69;;;23.98;45.06
62072;BME280;48031;48.542;13.232;2023-04-29T10:24:41;97094.19;;;24.88;42.99
62072;BME280;48031;48.542;13.232;2023-04-29T10:28:44;97085.03;;;24.99;41.97
62072;BME280;48031;48.542;13.232;2023-04-29T10:32:49;97083.72;;;25.52;41.59
62072;BME280;48031;48.542;13.232;2023-04-29T10:36:53;97079.63;;;26.09;41.06
62072;BME280;48031;48.542;13.232;2023-04-29T10:40:57;97082.28;;;27.07;39.59
62072;BME280;48031;48.542;13.232;2023-04-29T10:45:17;97067.59;;;27.10;37.00
62072;BME280;48031;48.542;13.232;2023-04-29T10:49:20;97069.34;;;28.25;37.71
62072;BME280;48031;48.542;13.232;2023-04-29T10:53:26;97064.44;;;29.01;36.83
62072;BME280;48031;48.542;13.232;2023-04-29T10:57:29;97050.94;;;28.76;33.59
62072;BME280;48031;48.542;13.232;2023-04-29T11:06:07;97044.28;;;28.32;33.51
62072;BME280;48031;48.542;13.232;2023-04-29T11:10:09;97040.00;;;27.89;34.21
62072;BME280;48031;48.542;13.232;2023-04-29T11:14:14;97038.72;;;26.99;36.96
62072;BME280;48031;48.542;13.232;2023-04-29T11:18:17;97040.94;;;26.20;37.33
62072;BME280;48031;48.542;13.232;2023-04-29T11:26:24;97044.19;;;26.57;36.73
62072;BME280;48031;48.542;13.232;2023-04-29T11:30:27;97046.13;;;26.21;38.62
62072;BME280;48031;48.542;13.232;2023-04-29T11:34:29;97034.63;;;25.56;38.25
62072;BME280;48031;48.542;13.232;2023-04-29T11:38:31;97033.53;;;25.45;38.72
62072;BME280;48031;48.542;13.232;2023-04-29T11:42:43;97048.94;;;25.43;38.81
62072;BME280;48031;48.542;13.232;2023-04-29T11:46:45;97060.53;;;24.49;41.78
62072;BME280;48031;48.542;13.232;2023-04-29T11:50:49;97070.75;;;24.33;42.26
62072;BME280;48031;48.542;13.232;2023-04-29T11:54:52;97071.78;;;24.40;43.17
62072;BME280;48031;48.542;13.232;2023-04-29T11:58:57;97090.38;;;23.79;45.27
62072;BME280;48031;48.542;13.232;2023-04-29T12:02:59;97086.75;;;23.21;48.09
62072;BME280;48031;48.542;13.232;2023-04-29T12:07:02;97078.91;;;23.56;46.39
62072;BME280;48031;48.542;13.232;2023-04-29T12:11:05;97076.41;;;24.12;45.00
62072;BME280;48031;48.542;13.232;2023-04-29T12:15:08;97069.69;;;24.25;46.71
62072;BME280;48031;48.542;13.232;2023-04-29T12:19:11;97066.66;;;23.70;46.70
62072;BME280;48031;48.542;13.232;2023-04-29T12:23:14;97066.66;;;24.95;44.28
62072;BME280;48031;48.542;13.232;2023-04-29T12:27:16;97057.53;;;24.94;44.89
62072;BME280;48031;48.542;13.232;2023-04-29T12:31:18;97057.72;;;25.29;43.29
62072;BME280;48031;48.542;13.232;2023-04-29T12:35:20;97052.50;;;25.43;42.82
62072;BME280;48031;48.542;13.232;2023-04-29T12:39:22;97059.75;;;25.32;42.01
62072;BME280;48031;48.542;13.232;2023-04-29T12:43:28;97046.16;;;27.33;38.76
62072;BME280;48031;48.542;13.232;2023-04-29T12:47:31;97038.28;;;31.20;31.66
62072;BME280;48031;48.542;13.232;2023-04-29T12:51:35;97034.34;;;32.63;27.99
62072;BME280;48031;48.542;13.232;2023-04-29T12:55:37;97041.22;;;31.95;26.97
62072;BME280;48031;48.542;13.232;2023-04-29T12:59:39;97038.75;;;31.47;29.11
62072;BME280;48031;48.542;13.232;2023-04-29T13:03:42;97038.41;;;31.70;28.22
62072;BME280;48031;48.542;13.232;2023-04-29T13:07:44;97027.94;;;32.52;26.29
62072;BME280;48031;48.542;13.232;2023-04-29T13:11:45;97034.28;;;31.28;27.88
62072;BME280;48031;48.542;13.232;2023-04-29T13:15:47;97031.53;;;30.56;28.64
62072;BME280;48031;48.542;13.232;2023-04-29T13:19:50;97040.09;;;33.43;26.45
62072;BME280;48031;48.542;13.232;2023-04-29T13:23:53;97037.13;;;31.46;29.52
62072;BME280;48031;48.542;13.232;2023-04-29T13:27:55;97054.88;;;28.19;32.59
62072;BME280;48031;48.542;13.232;2023-04-29T13:31:57;97071.75;;;26.11;36.72
62072;BME280;48031;48.542;13.232;2023-04-29T13:35:59;97076.69;;;25.86;37.64
62072;BME280;48031;48.542;13.232;2023-04-29T13:40:01;97081.31;;;26.80;39.66
62072;BME280;48031;48.542;13.232;2023-04-29T13:44:03;97080.81;;;26.94;37.98
62072;BME280;48031;48.542;13.232;2023-04-29T13:48:19;97079.22;;;26.77;39.96
62072;BME280;48031;48.542;13.232;2023-04-29T13:52:26;97070.63;;;26.47;39.23
62072;BME280;48031;48.542;13.232;2023-04-29T13:56:33;97067.75;;;28.27;35.75
62072;BME280;48031;48.542;13.232;2023-04-29T14:00:38;97065.38;;;29.86;31.51
62072;BME280;48031;48.542;13.232;2023-04-29T14:05:00;97059.53;;;29.98;30.01
62072;BME280;48031;48.542;13.232;2023-04-29T14:09:02;97059.63;;;30.67;30.33
62072;BME280;48031;48.542;13.232;2023-04-29T14:13:04;97054.09;;;32.31;27.02
62072;BME280;48031;48.542;13.232;2023-04-29T14:17:07;97055.25;;;32.51;26.67
62072;BME280;48031;48.542;13.232;2023-04-29T14:21:08;97064.47;;;31.95;26.81
62072;BME280;48031;48.542;13.232;2023-04-29T14:25:11;97064.09;;;30.20;29.46
62072;BME280;48031;48.542;13.232;2023-04-29T14:29:13;97058.00;;;30.62;28.88
62072;BME280;48031;48.542;13.232;2023-04-29T14:33:14;97060.50;;;30.81;27.78
62072;BME280;48031;48.542;13.232;2023-04-29T14:37:16;97070.81;;;29.71;28.14
62072;BME280;48031;48.542;13.232;2023-04-29T14:41:18;97064.41;;;30.63;28.19
62072;BME280;48031;48.542;13.232;2023-04-29T14:45:22;97063.53;;;31.24;28.39
62072;BME280;48031;48.542;13.232;2023-04-29T14:49:24;97064.84;;;30.72;28.46
62072;BME280;48031;48.542;13.232;2023-04-29T14:53:26;97069.56;;;30.06;27.47
62072;BME280;48031;48.542;13.232;2023-04-29T14:57:28;97072.44;;;28.46;28.51
62072;BME280;48031;48.542;13.232;2023-04-29T15:01:30;97070.28;;;29.96;27.95
62072;BME280;48031;48.542;13.232;2023-04-29T15:05:33;97074.53;;;29.83;27.59
62072;BME280;48031;48.542;13.232;2023-04-29T15:09:35;97083.56;;;28.99;28.60
62072;BME280;48031;48.542;13.232;2023-04-29T15:13:37;97098.72;;;27.12;30.74
62072;BME280;48031;48.542;13.232;2023-04-29T15:17:39;97096.88;;;25.99;33.03
62072;BME280;48031;48.542;13.232;2023-04-29T15:21:41;97093.38;;;26.33;33.61
62072;BME280;48031;48.542;13.232;2023-04-29T15:25:43;97101.13;;;26.59;32.10
62072;BME280;48031;48.542;13.232;2023-04-29T15:29:45;97090.69;;;26.05;32.49
62072;BME280;48031;48.542;13.232;2023-04-29T15:33:47;97087.75;;;27.42;30.50
62072;BME280;48031;48.542;13.232;2023-04-29T15:37:49;97089.59;;;28.22;28.71
62072;BME280;48031;48.542;13.232;2023-04-29T15:41:51;97089.19;;;28.46;28.90
62072;BME280;48031;48.542;13.232;2023-04-29T15:45:54;97099.06;;;27.29;28.88
62072;BME280;48031;48.542;13.232;2023-04-29T15:49:56;97094.56;;;28.84;29.04
62072;BME280;48031;48.542;13.232;2023-04-29T15:53:58;97097.25;;;28.77;28.75
62072;BME280;48031;48.542;13.232;2023-04-29T15:58:00;97103.06;;;27.70;30.46
62072;BME280;48031;48.542;13.232;2023-04-29T16:02:02;97107.72;;;26.51;31.79
62072;BME280;48031;48.542;13.232;2023-04-29T16:06:04;97128.84;;;25.18;34.57
62072;BME280;48031;48.542;13.232;2023-04-29T16:10:06;97122.53;;;25.77;33.43
62072;BME280;48031;48.542;13.232;2023-04-29T16:14:08;97137.88;;;25.15;34.11
62072;BME280;48031;48.542;13.232;2023-04-29T16:18:10;97138.34;;;25.17;34.37
62072;BME280;48031;48.542;13.232;2023-04-29T16:22:12;97131.19;;;25.59;33.35
62072;BME280;48031;48.542;13.232;2023-04-29T16:26:14;97133.13;;;26.18;31.46
62072;BME280;48031;48.542;13.232;2023-04-29T16:30:16;97137.91;;;27.03;31.00
62072;BME280;48031;48.542;13.232;2023-04-29T16:34:18;97130.63;;;27.53;29.99
62072;BME280;48031;48.542;13.232;2023-04-29T16:38:20;97146.22;;;27.99;28.34
62072;BME280;48031;48.542;13.232;2023-04-29T16:42:22;97153.69;;;27.92;29.13
62072;BME280;48031;48.542;13.232;2023-04-29T16:46:24;97157.81;;;27.21;30.54
62072;BME280;48031;48.542;13.232;2023-04-29T16:50:27;97158.63;;;26.52;31.74
62072;BME280;48031;48.542;13.232;2023-04-29T16:54:28;97177.03;;;24.85;34.36
62072;BME280;48031;48.542;13.232;2023-04-29T16:58:31;97173.22;;;26.64;32.37
62072;BME280;48031;48.542;13.232;2023-04-29T17:02:33;97174.41;;;26.47;32.46
62072;BME280;48031;48.542;13.232;2023-04-29T17:06:36;97179.97;;;27.14;31.84
62072;BME280;48031;48.542;13.232;2023-04-29T17:10:40;97180.38;;;26.81;31.98
62072;BME280;48031;48.542;13.232;2023-04-29T17:14:42;97182.56;;;26.09;33.86
62072;BME280;48031;48.542;13.232;2023-04-29T17:18:44;97195.13;;;25.59;33.69
62072;BME280;48031;48.542;13.232;2023-04-29T17:22:46;97196.91;;;25.12;32.98
62072;BME280;48031;48.542;13.232;2023-04-29T17:26:49;97195.28;;;25.11;32.95
62072;BME280;48031;48.542;13.232;2023-04-29T17:30:50;97198.47;;;24.49;34.66
62072;BME280;48031;48.542;13.232;2023-04-29T17:34:58;97203.31;;;24.88;34.52
62072;BME280;48031;48.542;13.232;2023-04-29T17:39:00;97211.41;;;24.32;35.83
62072;BME280;48031;48.542;13.232;2023-04-29T17:43:01;97210.03;;;23.81;36.56
62072;BME280;48031;48.542;13.232;2023-04-29T17:47:03;97221.78;;;23.25;37.90
62072;BME280;48031;48.542;13.232;2023-04-29T17:51:05;97220.84;;;23.20;38.54
62072;BME280;48031;48.542;13.232;2023-04-29T17:55:08;97223.19;;;22.89;39.20
62072;BME280;48031;48.542;13.232;2023-04-29T17:59:11;97229.94;;;22.71;39.28
62072;BME280;48031;48.542;13.232;2023-04-29T18:03:13;97226.69;;;22.77;39.32
62072;BME280;48031;48.542;13.232;2023-04-29T18:07:15;97238.34;;;22.54;39.80
62072;BME280;48031;48.542;13.232;2023-04-29T18:11:17;97237.59;;;22.45;39.92
62072;BME280;48031;48.542;13.232;2023-04-29T18:15:19;97242.78;;;21.91;41.28
62072;BME280;48031;48.542;13.232;2023-04-29T18:19:24;97247.56;;;21.56;42.24
62072;BME280;48031;48.542;13.232;2023-04-29T18:23:26;97260.72;;;21.42;42.04
62072;BME280;48031;48.542;13.232;2023-04-29T18:27:28;97264.63;;;21.49;42.64
62072;BME280;48031;48.542;13.232;2023-04-29T18:31:30;97263.81;;;21.49;42.30
62072;BME280;48031;48.542;13.232;2023-04-29T18:35:32;97272.91;;;21.41;42.18
62072;BME280;48031;48.542;13.232;2023-04-29T18:39:36;97268.53;;;21.31;42.19
62072;BME280;48031;48.542;13.232;2023-04-29T18:43:39;97279.03;;;20.95;43.32
62072;BME280;48031;48.542;13.232;2023-04-29T18:47:41;97275.94;;;21.05;43.82
62072;BME280;48031;48.542;13.232;2023-04-29T18:51:43;97282.06;;;20.85;43.47
62072;BME280;48031;48.542;13.232;2023-04-29T18:55:48;97302.69;;;20.87;42.98
62072;BME280;48031;48.542;13.232;2023-04-29T18:59:50;97292.72;;;20.60;43.02
62072;BME280;48031;48.542;13.232;2023-04-29T19:03:55;97313.06;;;20.42;43.10
62072;BME280;48031;48.542;13.232;2023-04-29T19:07:58;97309.69;;;20.23;44.65
62072;BME280;48031;48.542;13.232;2023-04-29T19:12:00;97311.06;;;20.03;45.84
62072;BME280;48031;48.542;13.232;2023-04-29T19:16:05;97313.53;;;19.82;45.70
62072;BME280;48031;48.542;13.232;2023-04-29T19:20:08;97317.78;;;19.66;46.17
62072;BME280;48031;48.542;13.232;2023-04-29T19:24:10;97316.75;;;19.84;46.05
62072;BME280;48031;48.542;13.232;2023-04-29T19:28:12;97323.66;;;19.73;46.19
62072;BME280;48031;48.542;13.232;2023-04-29T19:32:14;97321.97;;;19.86;46.03
62072;BME280;48031;48.542;13.232;2023-04-29T19:36:15;97326.16;;;19.83;45.75
62072;BME280;48031;48.542;13.232;2023-04-29T19:40:17;97334.72;;;19.60;45.74
62072;BME280;48031;48.542;13.232;2023-04-29T19:44:20;97342.50;;;19.44;45.83
62072;BME280;48031;48.542;13.232;2023-04-29T19:48:22;97336.91;;;18.99;47.56
62072;BME280;48031;48.542;13.232;2023-04-29T19:52:24;97339.84;;;19.03;47.84
62072;BME280;48031;48.542;13.232;2023-04-29T19:56:27;97345.34;;;18.89;48.30
62072;BME280;48031;48.542;13.232;2023-04-29T20:00:28;97347.56;;;19.15;47.40
62072;BME280;48031;48.542;13.232;2023-04-29T20:04:31;97348.72;;;19.00;47.58
62072;BME280;48031;48.542;13.232;2023-04-29T20:08:33;97358.22;;;19.30;47.01
62072;BME280;48031;48.542;13.232;2023-04-29T20:12:35;97362.56;;;19.08;46.47
62072;BME280;48031;48.542;13.232;2023-04-29T20:16:37;97361.13;;;19.11;47.02
62072;BME280;48031;48.542;13.232;2023-04-29T20:20:39;97357.25;;;19.12;47.73
62072;BME280;48031;48.542;13.232;2023-04-29T20:24:40;97363.16;;;19.19;46.82
62072;BME280;48031;48.542;13.232;2023-04-29T20:28:42;97367.59;;;19.29;46.78
62072;BME280;48031;48.542;13.232;2023-04-29T20:32:44;97372.84;;;19.17;47.73
62072;BME280;48031;48.542;13.232;2023-04-29T20:36:46;97367.38;;;19.52;45.79
62072;BME280;48031;48.542;13.232;2023-04-29T20:40:51;97372.19;;;19.47;47.67
62072;BME280;48031;48.542;13.232;2023-04-29T20:44:54;97377.03;;;18.87;48.48
62072;BME280;48031;48.542;13.232;2023-04-29T20:48:56;97381.88;;;18.49;50.02
62072;BME280;48031;48.542;13.232;2023-04-29T20:52:58;97383.09;;;18.43;49.91
62072;BME280;48031;48.542;13.232;2023-04-29T20:57:01;97380.78;;;18.63;49.85
62072;BME280;48031;48.542;13.232;2023-04-29T21:01:06;97372.69;;;18.40;50.14
62072;BME280;48031;48.542;13.232;2023-04-29T21:05:08;97378.19;;;18.40;50.05
62072;BME280;48031;48.542;13.232;2023-04-29T21:09:10;97378.66;;;18.28;50.56
62072;BME280;48031;48.542;13.232;2023-04-29T21:13:12;97381.63;;;18.64;49.63
62072;BME280;48031;48.542;13.232;2023-04-29T21:17:14;97386.31;;;18.77;48.78
62072;BME280;48031;48.542;13.232;2023-04-29T21:21:16;97390.88;;;18.68;49.07
62072;BME280;48031;48.542;13.232;2023-04-29T21:25:18;97394.75;;;18.67;49.20
62072;BME280;48031;48.542;13.232;2023-04-29T21:29:20;97398.53;;;18.85;48.62